Archival Weather

Sydney Intl

Sydney, Australia (YSSY)

Report from: Sunday, March 19, 2023 4:30 PM AEDT
Current time: Saturday, June 22, 2024 10:49 AM AEST

Current weather – Weather history – Daily summaries
Weather forecast

Temperature32.0°C (89.6°F)
Heat index33.5°C (92.3°F)
Dew point19.0°C (66.2°F)
Winds 8 kts (4.1 m/s, 9.2 mph) East (90°)
Clouds Sky clear
Altimeter29.97 in.Hg (1015 mB)
Relative humidity46 %
Density altitude2,181 ft. (665 m)
Remarks Ceiling and visibility OK
Flight conditions Visual Meteorological Conditions
Raw dataYSSY 190530Z 09008KT CAVOK 32/19 Q1015
An error has occurred. This application may no longer respond until reloaded. Reload 🗙